Terminal Aerodrome Forecast
Issued by NWS

Home | Current Version | Previous Version | Text Only | Print | Product List | Glossary On
Versions: 1 2 3 4 5 6 7 8 9 10 11 12 13 14 15 16 17 18 19
000
FTUS44 KLIX 201743
TAFMSY
TAF
KMSY 201743Z 2018/2118 23006KT P6SM BKN070
     FM201900 22007KT P6SM VCSH SCT040 BKN090
     FM210500 17006KT P6SM BKN015
      TEMPO 2107/2110 24030G45KT 1/2SM +TSRA BKN015CB
     FM211200 22009KT 1SM SHRA VCSH OVC025=

USA.gov is the U.S. government's official web portal to all federal, state and local government web resources and services.